sensor_id;sensor_type;location;lat;lon;timestamp;pressure;altitude;pressure_sealevel;temperature;humidity
74327;BME280;62745;51.060;13.786;2023-11-18T00:01:56;100787.13;;;4.79;100.00
74327;BME280;62745;51.060;13.786;2023-11-18T00:04:21;100781.16;;;4.87;100.00
74327;BME280;62745;51.060;13.786;2023-11-18T00:06:47;100797.47;;;4.73;100.00
74327;BME280;62745;51.060;13.786;2023-11-18T00:09:12;100783.66;;;4.69;100.00
74327;BME280;62745;51.060;13.786;2023-11-18T00:11:41;100782.44;;;4.54;100.00
74327;BME280;62745;51.060;13.786;2023-11-18T00:14:10;100798.59;;;4.61;100.00
74327;BME280;62745;51.060;13.786;2023-11-18T00:16:36;100801.81;;;4.55;100.00
74327;BME280;62745;51.060;13.786;2023-11-18T00:19:02;100788.00;;;4.41;100.00
74327;BME280;62745;51.060;13.786;2023-11-18T00:21:29;100796.50;;;4.45;100.00
74327;BME280;62745;51.060;13.786;2023-11-18T00:23:55;100801.91;;;4.53;100.00
74327;BME280;62745;51.060;13.786;2023-11-18T00:26:21;100818.22;;;4.48;100.00
74327;BME280;62745;51.060;13.786;2023-11-18T00:28:46;100819.31;;;4.46;100.00
74327;BME280;62745;51.060;13.786;2023-11-18T00:31:12;100827.69;;;4.41;100.00
74327;BME280;62745;51.060;13.786;2023-11-18T00:33:38;100811.38;;;4.36;100.00
74327;BME280;62745;51.060;13.786;2023-11-18T00:36:03;100816.97;;;4.43;100.00
74327;BME280;62745;51.060;13.786;2023-11-18T00:38:29;100831.16;;;4.42;100.00
74327;BME280;62745;51.060;13.786;2023-11-18T00:40:54;100811.25;;;4.28;100.00
74327;BME280;62745;51.060;13.786;2023-11-18T00:43:19;100808.75;;;4.27;100.00
74327;BME280;62745;51.060;13.786;2023-11-18T00:45:45;100835.31;;;4.25;100.00
74327;BME280;62745;51.060;13.786;2023-11-18T00:48:10;100844.09;;;4.26;100.00
74327;BME280;62745;51.060;13.786;2023-11-18T00:50:35;100829.03;;;4.16;100.00
74327;BME280;62745;51.060;13.786;2023-11-18T00:53:01;100830.31;;;4.22;100.00
74327;BME280;62745;51.060;13.786;2023-11-18T00:55:26;100839.31;;;4.19;100.00
74327;BME280;62745;51.060;13.786;2023-11-18T00:57:52;100842.81;;;4.10;100.00
74327;BME280;62745;51.060;13.786;2023-11-18T01:00:17;100854.09;;;4.12;100.00
74327;BME280;62745;51.060;13.786;2023-11-18T01:02:46;100822.03;;;3.96;100.00
74327;BME280;62745;51.060;13.786;2023-11-18T01:05:13;100854.22;;;4.11;100.00
74327;BME280;62745;51.060;13.786;2023-11-18T01:07:39;100848.50;;;4.06;100.00
74327;BME280;62745;51.060;13.786;2023-11-18T01:10:05;100866.75;;;4.09;100.00
74327;BME280;62745;51.060;13.786;2023-11-18T01:12:31;100853.53;;;4.18;100.00
74327;BME280;62745;51.060;13.786;2023-11-18T01:14:56;100844.44;;;4.02;100.00
74327;BME280;62745;51.060;13.786;2023-11-18T01:17:22;100849.47;;;4.05;100.00
74327;BME280;62745;51.060;13.786;2023-11-18T01:19:47;100863.53;;;4.15;100.00
74327;BME280;62745;51.060;13.786;2023-11-18T01:22:12;100870.63;;;4.14;100.00
74327;BME280;62745;51.060;13.786;2023-11-18T01:24:38;100868.69;;;4.16;100.00
74327;BME280;62745;51.060;13.786;2023-11-18T01:27:03;100847.81;;;4.04;100.00
74327;BME280;62745;51.060;13.786;2023-11-18T01:29:29;100850.03;;;4.08;100.00
74327;BME280;62745;51.060;13.786;2023-11-18T01:31:54;100870.13;;;4.20;100.00
74327;BME280;62745;51.060;13.786;2023-11-18T01:34:21;100867.59;;;4.19;100.00
74327;BME280;62745;51.060;13.786;2023-11-18T01:36:47;100873.00;;;4.17;100.00
74327;BME280;62745;51.060;13.786;2023-11-18T01:39:14;100879.28;;;4.16;100.00
74327;BME280;62745;51.060;13.786;2023-11-18T01:41:40;100892.81;;;4.23;100.00
74327;BME280;62745;51.060;13.786;2023-11-18T01:44:05;100885.28;;;4.28;100.00
74327;BME280;62745;51.060;13.786;2023-11-18T01:46:30;100880.97;;;4.27;100.00
74327;BME280;62745;51.060;13.786;2023-11-18T01:48:56;100882.50;;;4.20;100.00
74327;BME280;62745;51.060;13.786;2023-11-18T01:51:22;100893.31;;;4.17;100.00
74327;BME280;62745;51.060;13.786;2023-11-18T01:53:49;100894.75;;;4.21;100.00
74327;BME280;62745;51.060;13.786;2023-11-18T01:56:15;100897.25;;;4.22;100.00
74327;BME280;62745;51.060;13.786;2023-11-18T01:58:40;100886.53;;;4.24;100.00
74327;BME280;62745;51.060;13.786;2023-11-18T02:01:06;100890.31;;;4.21;100.00
74327;BME280;62745;51.060;13.786;2023-11-18T02:03:36;100890.16;;;4.23;100.00
74327;BME280;62745;51.060;13.786;2023-11-18T02:06:04;100898.09;;;4.23;100.00
74327;BME280;62745;51.060;13.786;2023-11-18T02:08:30;100893.50;;;4.25;100.00
74327;BME280;62745;51.060;13.786;2023-11-18T02:11:13;100897.97;;;4.25;100.00
74327;BME280;62745;51.060;13.786;2023-11-18T02:13:42;100894.75;;;4.21;100.00
74327;BME280;62745;51.060;13.786;2023-11-18T02:16:11;100899.16;;;4.11;100.00
74327;BME280;62745;51.060;13.786;2023-11-18T02:18:38;100906.41;;;4.09;100.00
74327;BME280;62745;51.060;13.786;2023-11-18T02:21:06;100918.09;;;4.16;100.00
74327;BME280;62745;51.060;13.786;2023-11-18T02:23:33;100913.38;;;4.19;100.00
74327;BME280;62745;51.060;13.786;2023-11-18T02:25:58;100905.47;;;4.29;100.00
74327;BME280;62745;51.060;13.786;2023-11-18T02:28:26;100911.88;;;4.27;100.00
74327;BME280;62745;51.060;13.786;2023-11-18T02:30:55;100892.25;;;4.29;100.00
74327;BME280;62745;51.060;13.786;2023-11-18T02:33:27;100914.53;;;4.27;100.00
74327;BME280;62745;51.060;13.786;2023-11-18T02:36:02;100900.69;;;4.13;100.00
74327;BME280;62745;51.060;13.786;2023-11-18T02:38:33;100913.97;;;4.33;100.00
74327;BME280;62745;51.060;13.786;2023-11-18T02:41:06;100911.44;;;4.21;100.00
74327;BME280;62745;51.060;13.786;2023-11-18T02:43:36;100902.69;;;4.21;100.00
74327;BME280;62745;51.060;13.786;2023-11-18T02:46:05;100906.69;;;4.15;100.00
74327;BME280;62745;51.060;13.786;2023-11-18T02:48:32;100924.41;;;4.25;100.00
74327;BME280;62745;51.060;13.786;2023-11-18T02:50:58;100906.03;;;4.33;100.00
74327;BME280;62745;51.060;13.786;2023-11-18T02:53:24;100909.88;;;4.09;100.00
74327;BME280;62745;51.060;13.786;2023-11-18T02:55:49;100896.47;;;4.01;100.00
74327;BME280;62745;51.060;13.786;2023-11-18T02:58:17;100898.75;;;4.06;100.00
74327;BME280;62745;51.060;13.786;2023-11-18T03:00:42;100909.78;;;4.30;100.00
74327;BME280;62745;51.060;13.786;2023-11-18T03:03:09;100919.91;;;4.15;100.00
74327;BME280;62745;51.060;13.786;2023-11-18T03:05:36;100919.91;;;4.15;100.00
74327;BME280;62745;51.060;13.786;2023-11-18T03:08:01;100926.38;;;4.02;100.00
74327;BME280;62745;51.060;13.786;2023-11-18T03:10:26;100924.53;;;4.23;100.00
74327;BME280;62745;51.060;13.786;2023-11-18T03:12:55;100926.09;;;4.35;100.00
74327;BME280;62745;51.060;13.786;2023-11-18T03:15:21;100917.34;;;4.44;100.00
74327;BME280;62745;51.060;13.786;2023-11-18T03:17:48;100928.75;;;4.45;100.00
74327;BME280;62745;51.060;13.786;2023-11-18T03:20:16;100923.34;;;4.46;100.00
74327;BME280;62745;51.060;13.786;2023-11-18T03:22:45;100924.31;;;4.45;100.00
74327;BME280;62745;51.060;13.786;2023-11-18T03:25:12;100925.00;;;4.47;100.00
74327;BME280;62745;51.060;13.786;2023-11-18T03:27:37;100906.16;;;4.31;100.00
74327;BME280;62745;51.060;13.786;2023-11-18T03:30:03;100918.84;;;4.28;100.00
74327;BME280;62745;51.060;13.786;2023-11-18T03:32:29;100927.19;;;4.33;100.00
74327;BME280;62745;51.060;13.786;2023-11-18T03:34:54;100926.22;;;4.24;100.00
74327;BME280;62745;51.060;13.786;2023-11-18T03:37:19;100932.34;;;3.94;100.00
74327;BME280;62745;51.060;13.786;2023-11-18T03:39:48;100931.31;;;4.16;100.00
74327;BME280;62745;51.060;13.786;2023-11-18T03:42:13;100936.25;;;4.30;100.00
74327;BME280;62745;51.060;13.786;2023-11-18T03:44:38;100944.25;;;4.19;100.00
74327;BME280;62745;51.060;13.786;2023-11-18T03:47:04;100938.31;;;4.27;100.00
74327;BME280;62745;51.060;13.786;2023-11-18T03:49:29;100945.91;;;4.60;100.00
74327;BME280;62745;51.060;13.786;2023-11-18T03:51:54;100938.19;;;4.28;100.00
74327;BME280;62745;51.060;13.786;2023-11-18T03:54:20;100942.63;;;4.28;100.00
74327;BME280;62745;51.060;13.786;2023-11-18T03:56:45;100946.41;;;4.25;100.00
74327;BME280;62745;51.060;13.786;2023-11-18T03:59:10;100953.28;;;4.07;100.00
74327;BME280;62745;51.060;13.786;2023-11-18T04:01:36;100941.63;;;4.19;100.00
74327;BME280;62745;51.060;13.786;2023-11-18T04:04:01;100943.63;;;4.27;100.00
74327;BME280;62745;51.060;13.786;2023-11-18T04:06:26;100940.13;;;4.26;100.00
74327;BME280;62745;51.060;13.786;2023-11-18T04:08:51;100928.66;;;4.06;100.00
74327;BME280;62745;51.060;13.786;2023-11-18T04:11:17;100946.19;;;4.07;100.00
74327;BME280;62745;51.060;13.786;2023-11-18T04:13:43;100942.16;;;4.03;100.00
74327;BME280;62745;51.060;13.786;2023-11-18T04:16:15;100938.63;;;4.03;100.00
74327;BME280;62745;51.060;13.786;2023-11-18T04:18:42;100943.06;;;3.92;100.00
74327;BME280;62745;51.060;13.786;2023-11-18T04:21:08;100949.75;;;3.97;100.00
74327;BME280;62745;51.060;13.786;2023-11-18T04:23:37;100936.75;;;3.84;100.00
74327;BME280;62745;51.060;13.786;2023-11-18T04:26:04;100954.34;;;3.95;100.00
74327;BME280;62745;51.060;13.786;2023-11-18T04:28:30;100955.94;;;4.07;100.00
74327;BME280;62745;51.060;13.786;2023-11-18T04:30:55;100962.41;;;4.33;100.00
74327;BME280;62745;51.060;13.786;2023-11-18T04:33:20;100950.06;;;4.43;100.00
74327;BME280;62745;51.060;13.786;2023-11-18T04:35:46;100957.75;;;4.16;100.00
74327;BME280;62745;51.060;13.786;2023-11-18T04:38:12;100945.72;;;3.92;100.00
74327;BME280;62745;51.060;13.786;2023-11-18T04:40:37;100955.84;;;3.87;100.00
74327;BME280;62745;51.060;13.786;2023-11-18T04:43:04;100965.31;;;3.90;100.00
74327;BME280;62745;51.060;13.786;2023-11-18T04:45:29;100960.19;;;3.98;100.00
74327;BME280;62745;51.060;13.786;2023-11-18T04:47:55;100949.88;;;3.95;100.00
74327;BME280;62745;51.060;13.786;2023-11-18T04:50:21;100951.41;;;3.88;100.00
74327;BME280;62745;51.060;13.786;2023-11-18T04:52:46;100970.59;;;3.90;100.00
74327;BME280;62745;51.060;13.786;2023-11-18T04:55:11;100958.09;;;3.92;100.00
74327;BME280;62745;51.060;13.786;2023-11-18T04:57:38;100973.53;;;3.97;100.00
74327;BME280;62745;51.060;13.786;2023-11-18T05:00:04;100963.25;;;3.93;100.00
74327;BME280;62745;51.060;13.786;2023-11-18T05:02:36;100963.41;;;4.02;100.00
74327;BME280;62745;51.060;13.786;2023-11-18T05:05:02;100961.28;;;3.96;100.00
74327;BME280;62745;51.060;13.786;2023-11-18T05:07:30;100964.06;;;3.94;100.00
74327;BME280;62745;51.060;13.786;2023-11-18T05:09:55;100955.69;;;4.19;100.00
74327;BME280;62745;51.060;13.786;2023-11-18T05:12:21;100968.34;;;4.16;100.00
74327;BME280;62745;51.060;13.786;2023-11-18T05:14:46;100964.34;;;4.21;100.00
74327;BME280;62745;51.060;13.786;2023-11-18T05:17:15;100977.34;;;4.44;100.00
74327;BME280;62745;51.060;13.786;2023-11-18T05:19:40;100969.75;;;4.20;100.00
74327;BME280;62745;51.060;13.786;2023-11-18T05:22:06;100961.44;;;4.25;100.00
74327;BME280;62745;51.060;13.786;2023-11-18T05:24:31;100968.19;;;4.17;100.00
74327;BME280;62745;51.060;13.786;2023-11-18T05:26:57;100973.91;;;4.13;100.00
74327;BME280;62745;51.060;13.786;2023-11-18T05:29:22;100969.56;;;4.12;100.00
74327;BME280;62745;51.060;13.786;2023-11-18T05:31:50;100974.19;;;4.19;100.00
74327;BME280;62745;51.060;13.786;2023-11-18T05:34:16;100973.50;;;4.17;100.00
74327;BME280;62745;51.060;13.786;2023-11-18T05:36:41;100979.75;;;4.16;100.00
74327;BME280;62745;51.060;13.786;2023-11-18T05:39:06;100979.59;;;4.18;100.00
74327;BME280;62745;51.060;13.786;2023-11-18T05:41:34;100977.69;;;4.20;100.00
74327;BME280;62745;51.060;13.786;2023-11-18T05:44:00;100986.72;;;4.17;100.00
74327;BME280;62745;51.060;13.786;2023-11-18T05:46:25;100979.19;;;4.13;100.00
74327;BME280;62745;51.060;13.786;2023-11-18T05:48:54;100982.63;;;4.04;100.00
74327;BME280;62745;51.060;13.786;2023-11-18T05:51:24;100981.91;;;4.02;100.00
74327;BME280;62745;51.060;13.786;2023-11-18T05:53:51;100983.47;;;4.04;100.00
74327;BME280;62745;51.060;13.786;2023-11-18T05:56:17;100979.66;;;3.97;100.00
74327;BME280;62745;51.060;13.786;2023-11-18T05:58:43;100993.16;;;3.94;100.00
74327;BME280;62745;51.060;13.786;2023-11-18T06:01:08;100992.13;;;3.85;100.00
74327;BME280;62745;51.060;13.786;2023-11-18T06:03:34;100986.13;;;3.83;100.00
74327;BME280;62745;51.060;13.786;2023-11-18T06:06:08;100988.28;;;3.99;100.00
74327;BME280;62745;51.060;13.786;2023-11-18T06:08:35;100991.59;;;3.91;100.00
74327;BME280;62745;51.060;13.786;2023-11-18T06:11:01;100999.13;;;3.96;100.00
74327;BME280;62745;51.060;13.786;2023-11-18T06:13:38;100997.19;;;3.98;100.00
74327;BME280;62745;51.060;13.786;2023-11-18T06:16:08;100998.00;;;3.89;100.00
74327;BME280;62745;51.060;13.786;2023-11-18T06:18:34;101005.13;;;3.98;100.00
74327;BME280;62745;51.060;13.786;2023-11-18T06:21:01;101008.31;;;3.92;100.00
74327;BME280;62745;51.060;13.786;2023-11-18T06:23:26;101007.78;;;3.98;100.00
74327;BME280;62745;51.060;13.786;2023-11-18T06:25:51;101012.34;;;3.96;100.00
74327;BME280;62745;51.060;13.786;2023-11-18T06:28:16;101007.34;;;3.93;100.00
74327;BME280;62745;51.060;13.786;2023-11-18T06:30:42;101002.06;;;3.93;100.00
74327;BME280;62745;51.060;13.786;2023-11-18T06:33:07;101023.06;;;3.95;100.00
74327;BME280;62745;51.060;13.786;2023-11-18T06:35:32;101004.13;;;3.89;100.00
74327;BME280;62745;51.060;13.786;2023-11-18T06:37:59;101014.47;;;4.02;100.00
74327;BME280;62745;51.060;13.786;2023-11-18T06:40:26;101026.97;;;4.00;100.00
74327;BME280;62745;51.060;13.786;2023-11-18T06:42:52;101017.06;;;3.92;100.00
74327;BME280;62745;51.060;13.786;2023-11-18T06:45:19;101015.84;;;3.97;100.00
74327;BME280;62745;51.060;13.786;2023-11-18T06:47:47;101029.13;;;4.06;100.00
74327;BME280;62745;51.060;13.786;2023-11-18T06:50:14;101024.19;;;4.02;100.00
74327;BME280;62745;51.060;13.786;2023-11-18T06:52:41;101030.09;;;4.05;100.00
74327;BME280;62745;51.060;13.786;2023-11-18T06:55:07;101031.06;;;4.04;100.00
74327;BME280;62745;51.060;13.786;2023-11-18T06:57:32;101028.41;;;4.04;100.00
74327;BME280;62745;51.060;13.786;2023-11-18T06:59:58;101030.38;;;4.12;100.00
74327;BME280;62745;51.060;13.786;2023-11-18T07:02:23;101033.94;;;4.22;100.00
74327;BME280;62745;51.060;13.786;2023-11-18T07:04:48;101034.06;;;4.20;100.00
74327;BME280;62745;51.060;13.786;2023-11-18T07:07:14;101035.00;;;4.19;100.00
74327;BME280;62745;51.060;13.786;2023-11-18T07:09:39;101037.31;;;4.34;100.00
74327;BME280;62745;51.060;13.786;2023-11-18T07:12:04;101031.91;;;4.05;100.00
74327;BME280;62745;51.060;13.786;2023-11-18T07:14:30;101038.97;;;4.35;100.00
74327;BME280;62745;51.060;13.786;2023-11-18T07:16:55;101043.06;;;4.18;100.00
74327;BME280;62745;51.060;13.786;2023-11-18T07:19:20;101042.44;;;4.26;100.00
74327;BME280;62745;51.060;13.786;2023-11-18T07:21:50;101042.94;;;4.19;100.00
74327;BME280;62745;51.060;13.786;2023-11-18T07:24:15;101033.97;;;4.32;100.00
74327;BME280;62745;51.060;13.786;2023-11-18T07:26:42;101048.34;;;4.39;100.00
74327;BME280;62745;51.060;13.786;2023-11-18T07:29:09;101040.13;;;4.42;100.00
74327;BME280;62745;51.060;13.786;2023-11-18T07:31:34;101046.28;;;4.42;100.00
74327;BME280;62745;51.060;13.786;2023-11-18T07:34:02;101030.41;;;4.42;100.00
74327;BME280;62745;51.060;13.786;2023-11-18T07:36:27;101044.75;;;4.49;100.00
74327;BME280;62745;51.060;13.786;2023-11-18T07:38:53;101046.47;;;4.60;100.00
74327;BME280;62745;51.060;13.786;2023-11-18T07:41:18;101047.75;;;4.35;100.00
74327;BME280;62745;51.060;13.786;2023-11-18T07:43:50;101045.44;;;4.42;100.00
74327;BME280;62745;51.060;13.786;2023-11-18T07:46:17;101034.38;;;4.27;100.00
74327;BME280;62745;51.060;13.786;2023-11-18T07:48:43;101041.59;;;4.65;100.00
74327;BME280;62745;51.060;13.786;2023-11-18T07:51:08;101055.72;;;4.75;100.00
74327;BME280;62745;51.060;13.786;2023-11-18T07:53:33;101047.22;;;4.72;100.00
74327;BME280;62745;51.060;13.786;2023-11-18T07:55:59;101056.31;;;4.89;100.00
74327;BME280;62745;51.060;13.786;2023-11-18T07:58:26;101069.69;;;4.87;100.00
74327;BME280;62745;51.060;13.786;2023-11-18T08:00:52;101061.75;;;4.97;100.00
74327;BME280;62745;51.060;13.786;2023-11-18T08:03:17;101068.06;;;5.15;100.00
74327;BME280;62745;51.060;13.786;2023-11-18T08:05:44;101064.72;;;5.13;100.00
74327;BME280;62745;51.060;13.786;2023-11-18T08:08:11;101080.34;;;5.26;100.00
74327;BME280;62745;51.060;13.786;2023-11-18T08:10:38;101089.81;;;5.09;100.00
74327;BME280;62745;51.060;13.786;2023-11-18T08:13:07;101093.09;;;4.92;100.00
74327;BME280;62745;51.060;13.786;2023-11-18T08:15:41;101084.41;;;4.80;100.00
74327;BME280;62745;51.060;13.786;2023-11-18T08:18:08;101091.84;;;4.96;100.00
74327;BME280;62745;51.060;13.786;2023-11-18T08:20:35;101078.06;;;5.02;100.00
74327;BME280;62745;51.060;13.786;2023-11-18T08:23:01;101090.94;;;5.35;100.00
74327;BME280;62745;51.060;13.786;2023-11-18T08:25:29;101087.59;;;5.33;100.00
74327;BME280;62745;51.060;13.786;2023-11-18T08:27:55;101090.56;;;5.40;100.00
74327;BME280;62745;51.060;13.786;2023-11-18T08:30:20;101094.03;;;5.50;100.00
74327;BME280;62745;51.060;13.786;2023-11-18T08:32:47;101109.09;;;5.40;100.00
74327;BME280;62745;51.060;13.786;2023-11-18T08:35:13;101096.34;;;5.14;100.00
74327;BME280;62745;51.060;13.786;2023-11-18T08:37:40;101113.22;;;5.13;100.00
74327;BME280;62745;51.060;13.786;2023-11-18T08:40:06;101120.22;;;5.34;100.00
74327;BME280;62745;51.060;13.786;2023-11-18T08:42:40;101113.84;;;5.46;100.00
74327;BME280;62745;51.060;13.786;2023-11-18T08:45:07;101104.50;;;5.61;100.00
74327;BME280;62745;51.060;13.786;2023-11-18T08:47:32;101122.22;;;5.41;100.00
74327;BME280;62745;51.060;13.786;2023-11-18T08:49:58;101109.47;;;5.16;100.00
74327;BME280;62745;51.060;13.786;2023-11-18T08:52:23;101117.22;;;4.89;100.00
74327;BME280;62745;51.060;13.786;2023-11-18T08:54:50;101114.72;;;4.97;100.00
74327;BME280;62745;51.060;13.786;2023-11-18T08:57:42;101118.81;;;5.10;100.00
74327;BME280;62745;51.060;13.786;2023-11-18T09:00:17;101115.63;;;5.36;100.00
74327;BME280;62745;51.060;13.786;2023-11-18T09:03:02;101122.03;;;5.24;100.00
74327;BME280;62745;51.060;13.786;2023-11-18T09:05:32;101128.88;;;5.26;100.00
74327;BME280;62745;51.060;13.786;2023-11-18T09:07:58;101117.72;;;5.23;100.00
74327;BME280;62745;51.060;13.786;2023-11-18T09:10:26;101112.69;;;5.29;100.00
74327;BME280;62745;51.060;13.786;2023-11-18T09:12:53;101134.91;;;5.48;100.00
74327;BME280;62745;51.060;13.786;2023-11-18T09:15:19;101134.31;;;5.34;100.00
74327;BME280;62745;51.060;13.786;2023-11-18T09:17:48;101128.38;;;5.81;100.00
74327;BME280;62745;51.060;13.786;2023-11-18T09:20:14;101136.28;;;5.52;100.00
74327;BME280;62745;51.060;13.786;2023-11-18T09:22:43;101130.03;;;5.62;100.00
74327;BME280;62745;51.060;13.786;2023-11-18T09:25:09;101126.41;;;5.44;100.00
74327;BME280;62745;51.060;13.786;2023-11-18T09:27:36;101135.47;;;5.51;100.00
74327;BME280;62745;51.060;13.786;2023-11-18T09:30:04;101149.16;;;5.66;100.00
74327;BME280;62745;51.060;13.786;2023-11-18T09:32:38;101145.69;;;5.75;100.00
74327;BME280;62745;51.060;13.786;2023-11-18T09:35:04;101137.16;;;5.62;100.00
74327;BME280;62745;51.060;13.786;2023-11-18T09:37:34;101123.34;;;5.78;100.00
74327;BME280;62745;51.060;13.786;2023-11-18T09:40:00;101139.84;;;5.91;100.00
74327;BME280;62745;51.060;13.786;2023-11-18T09:42:36;101132.69;;;5.82;100.00
74327;BME280;62745;51.060;13.786;2023-11-18T09:45:02;101111.34;;;6.22;100.00
74327;BME280;62745;51.060;13.786;2023-11-18T09:47:34;101124.47;;;6.14;100.00
74327;BME280;62745;51.060;13.786;2023-11-18T09:50:03;101116.75;;;6.40;100.00
74327;BME280;62745;51.060;13.786;2023-11-18T09:53:00;101119.50;;;6.48;100.00
74327;BME280;62745;51.060;13.786;2023-11-18T09:55:41;101128.38;;;6.66;100.00
74327;BME280;62745;51.060;13.786;2023-11-18T09:58:10;101126.47;;;6.86;100.00
74327;BME280;62745;51.060;13.786;2023-11-18T10:00:39;101133.84;;;6.55;100.00
74327;BME280;62745;51.060;13.786;2023-11-18T10:03:07;101113.88;;;6.88;100.00
74327;BME280;62745;51.060;13.786;2023-11-18T10:05:41;101128.31;;;7.13;100.00
74327;BME280;62745;51.060;13.786;2023-11-18T10:08:07;101130.81;;;7.14;100.00
74327;BME280;62745;51.060;13.786;2023-11-18T10:10:34;101137.97;;;7.41;100.00
74327;BME280;62745;51.060;13.786;2023-11-18T10:13:03;101126.22;;;7.34;100.00
74327;BME280;62745;51.060;13.786;2023-11-18T10:15:34;101127.03;;;7.17;100.00
74327;BME280;62745;51.060;13.786;2023-11-18T10:18:00;101106.94;;;7.32;100.00
74327;BME280;62745;51.060;13.786;2023-11-18T10:20:51;101119.03;;;7.80;100.00
74327;BME280;62745;51.060;13.786;2023-11-18T10:23:18;101103.31;;;7.51;100.00
74327;BME280;62745;51.060;13.786;2023-11-18T10:25:50;101112.44;;;7.48;100.00
74327;BME280;62745;51.060;13.786;2023-11-18T10:28:24;101124.06;;;7.83;100.00
74327;BME280;62745;51.060;13.786;2023-11-18T10:30:52;101122.06;;;8.03;100.00
74327;BME280;62745;51.060;13.786;2023-11-18T10:33:18;101116.88;;;8.01;100.00
74327;BME280;62745;51.060;13.786;2023-11-18T10:35:50;101121.78;;;7.70;100.00
74327;BME280;62745;51.060;13.786;2023-11-18T10:38:21;101125.72;;;8.02;100.00
74327;BME280;62745;51.060;13.786;2023-11-18T10:40:51;101117.53;;;8.21;100.00
74327;BME280;62745;51.060;13.786;2023-11-18T10:43:17;101126.03;;;7.81;100.00
74327;BME280;62745;51.060;13.786;2023-11-18T10:45:42;101124.09;;;7.38;100.00
74327;BME280;62745;51.060;13.786;2023-11-18T10:48:08;101125.19;;;7.63;100.00
74327;BME280;62745;51.060;13.786;2023-11-18T10:50:34;101119.88;;;7.63;100.00
74327;BME280;62745;51.060;13.786;2023-11-18T10:53:00;101115.09;;;7.66;100.00
74327;BME280;62745;51.060;13.786;2023-11-18T10:55:38;101094.19;;;7.71;100.00
74327;BME280;62745;51.060;13.786;2023-11-18T10:58:05;101122.03;;;7.59;100.00
74327;BME280;62745;51.060;13.786;2023-11-18T11:00:50;101096.31;;;7.32;100.00
74327;BME280;62745;51.060;13.786;2023-11-18T11:03:16;101107.94;;;7.49;100.00
74327;BME280;62745;51.060;13.786;2023-11-18T11:05:43;101099.28;;;7.29;100.00
74327;BME280;62745;51.060;13.786;2023-11-18T11:08:16;101099.78;;;7.15;100.00
74327;BME280;62745;51.060;13.786;2023-11-18T11:10:42;101113.69;;;7.27;100.00
74327;BME280;62745;51.060;13.786;2023-11-18T11:13:08;101105.06;;;7.42;100.00
74327;BME280;62745;51.060;13.786;2023-11-18T11:15:40;101098.41;;;7.56;100.00
74327;BME280;62745;51.060;13.786;2023-11-18T11:18:08;101080.06;;;7.53;100.00
74327;BME280;62745;51.060;13.786;2023-11-18T11:20:39;101107.16;;;7.21;100.00
74327;BME280;62745;51.060;13.786;2023-11-18T11:23:21;101111.44;;;7.04;100.00
74327;BME280;62745;51.060;13.786;2023-11-18T11:29:09;101120.81;;;7.08;100.00
74327;BME280;62745;51.060;13.786;2023-11-18T11:31:40;101130.03;;;7.04;100.00
74327;BME280;62745;51.060;13.786;2023-11-18T11:34:11;101119.81;;;6.82;100.00
74327;BME280;62745;51.060;13.786;2023-11-18T11:36:50;101112.72;;;7.00;100.00
74327;BME280;62745;51.060;13.786;2023-11-18T11:39:16;101113.25;;;7.31;100.00
74327;BME280;62745;51.060;13.786;2023-11-18T11:41:55;101104.97;;;7.34;100.00
74327;BME280;62745;51.060;13.786;2023-11-18T11:44:22;101100.84;;;7.22;99.51
74327;BME280;62745;51.060;13.786;2023-11-18T11:46:54;101111.84;;;7.09;93.46
74327;BME280;62745;51.060;13.786;2023-11-18T11:49:21;101090.56;;;6.91;92.12
74327;BME280;62745;51.060;13.786;2023-11-18T11:52:08;101091.94;;;6.96;90.95
74327;BME280;62745;51.060;13.786;2023-11-18T11:54:43;101092.22;;;6.92;86.52
74327;BME280;62745;51.060;13.786;2023-11-18T11:57:10;101073.03;;;6.99;86.29
74327;BME280;62745;51.060;13.786;2023-11-18T12:02:11;101065.09;;;7.34;83.67
74327;BME280;62745;51.060;13.786;2023-11-18T12:04:37;101079.06;;;7.18;84.65
74327;BME280;62745;51.060;13.786;2023-11-18T12:07:05;101068.25;;;7.02;85.65
74327;BME280;62745;51.060;13.786;2023-11-18T12:09:31;101070.19;;;7.10;86.36
74327;BME280;62745;51.060;13.786;2023-11-18T12:12:03;101065.00;;;7.08;85.55
74327;BME280;62745;51.060;13.786;2023-11-18T12:14:29;101073.88;;;6.99;86.61
74327;BME280;62745;51.060;13.786;2023-11-18T12:16:58;101073.22;;;7.15;89.04
74327;BME280;62745;51.060;13.786;2023-11-18T12:19:36;101076.53;;;6.99;87.19
74327;BME280;62745;51.060;13.786;2023-11-18T12:22:23;101069.34;;;6.82;86.71
74327;BME280;62745;51.060;13.786;2023-11-18T12:27:41;101057.84;;;6.63;86.89
74327;BME280;62745;51.060;13.786;2023-11-18T12:35:26;101063.19;;;7.09;86.12
74327;BME280;62745;51.060;13.786;2023-11-18T12:43:16;101052.38;;;6.92;83.92
74327;BME280;62745;51.060;13.786;2023-11-18T12:46:20;101041.16;;;7.16;81.35
74327;BME280;62745;51.060;13.786;2023-11-18T12:48:56;101049.97;;;6.99;83.36
74327;BME280;62745;51.060;13.786;2023-11-18T12:51:22;101040.59;;;6.77;85.72
74327;BME280;62745;51.060;13.786;2023-11-18T12:53:48;101041.13;;;7.44;84.38
74327;BME280;62745;51.060;13.786;2023-11-18T12:56:17;101023.66;;;7.23;83.22
74327;BME280;62745;51.060;13.786;2023-11-18T12:58:45;101019.03;;;6.80;83.54
74327;BME280;62745;51.060;13.786;2023-11-18T13:01:10;101028.34;;;7.12;83.16
74327;BME280;62745;51.060;13.786;2023-11-18T13:03:42;101009.22;;;7.26;80.04